Terminal Aerodrome Forecast
Issued by NWS

Home | Current Version | Previous Version | Text Only | Print | Product List | Glossary Off
Versions: 1 2 3 4 5 6 7 8 9 10 11 12 13 14 15 16

543
FTUS43 KGRB 281203 AAA
TAFCWA
TAF AMD
KCWA 281203Z 2812/2912 01007KT P6SM OVC012
      TEMPO 2812/2815 -SHRA BKN009
     FM281500 03011G17KT P6SM BKN016
      TEMPO 2815/2817 -RA
     FM281700 03011G18KT P6SM BKN025
     FM282000 03010G16KT P6SM BKN035
     FM282300 02007KT P6SM BKN040
     FM290200 01007KT P6SM FEW021=

USA.gov is the U.S. government's official web portal to all federal, state and local government web resources and services.